createdAt,value
2018-04-17T00:00:33.881Z,7.3
2018-04-17T00:01:33.850Z,7.56
2018-04-17T00:02:33.864Z,7.58
2018-04-17T00:03:33.867Z,7.44
2018-04-17T00:04:33.833Z,7.52
2018-04-17T00:05:33.823Z,7.48
2018-04-17T00:06:33.829Z,7.51
2018-04-17T00:07:33.846Z,7.43
2018-04-17T00:08:33.849Z,7.53
2018-04-17T00:09:33.807Z,7.42
2018-04-17T00:10:33.933Z,7.54
2018-04-17T00:11:33.839Z,7.55
2018-04-17T00:12:33.965Z,7.6
2018-04-17T00:13:33.830Z,7.61
2018-04-17T00:14:33.812Z,7.62
2018-04-17T00:15:33.880Z,7.39
2018-04-17T00:16:33.808Z,7.43
2018-04-17T00:17:33.815Z,7.36
2018-04-17T00:18:33.932Z,7.37
2018-04-17T00:19:33.826Z,7.3
2018-04-17T00:20:33.791Z,7.42
2018-04-17T00:21:33.870Z,7.46
2018-04-17T00:22:33.809Z,7.42
2018-04-17T00:23:33.858Z,7.38
2018-04-17T00:24:33.853Z,7.39
2018-04-17T00:25:33.801Z,7.38
2018-04-17T00:26:33.809Z,7.26
2018-04-17T00:27:33.813Z,7.36
2018-04-17T00:28:33.825Z,7.53
2018-04-17T00:29:33.818Z,7.23
2018-04-17T00:30:33.826Z,7.25
2018-04-17T00:31:33.784Z,7.32
2018-04-17T00:32:33.783Z,7.36
2018-04-17T00:33:33.780Z,7.35
2018-04-17T00:34:33.825Z,7.28
2018-04-17T00:35:33.786Z,7.37
2018-04-17T00:36:33.769Z,7.16
2018-04-17T00:37:33.774Z,7.17
2018-04-17T00:38:33.772Z,7.35
2018-04-17T00:39:33.802Z,7.36
2018-04-17T00:40:33.837Z,7.18
2018-04-17T00:41:33.784Z,7.3
2018-04-17T00:42:33.771Z,7.32
2018-04-17T00:43:33.766Z,7.37
2018-04-17T00:44:33.831Z,7.37
2018-04-17T00:45:33.863Z,7.34
2018-04-17T00:46:33.761Z,7.47
2018-04-17T00:47:33.777Z,7.45
2018-04-17T00:48:33.777Z,7.49
2018-04-17T00:49:33.784Z,7.5
2018-04-17T00:50:33.755Z,7.48
2018-04-17T00:51:33.789Z,7.32
2018-04-17T00:52:33.771Z,7.28
2018-04-17T00:53:33.783Z,7.54
2018-04-17T00:54:33.785Z,7.26
2018-04-17T00:55:33.778Z,7.26
2018-04-17T00:56:33.753Z,7.21
2018-04-17T00:57:33.816Z,7.3
2018-04-17T00:58:33.758Z,7.15
2018-04-17T00:59:33.763Z,7.6
2018-04-17T01:00:33.742Z,7.49
2018-04-17T01:01:33.765Z,7.41
2018-04-17T01:02:33.780Z,7.48
2018-04-17T01:03:33.762Z,7.43
2018-04-17T01:04:33.771Z,7.44
2018-04-17T01:05:33.741Z,7.45
2018-04-17T01:06:33.762Z,7.46
2018-04-17T01:07:33.751Z,7.38
2018-04-17T01:08:33.753Z,7.32
2018-04-17T01:09:33.772Z,7.2
2018-04-17T01:10:33.724Z,7.22
2018-04-17T01:11:33.727Z,7.28
2018-04-17T01:12:33.731Z,7.16
2018-04-17T01:13:33.735Z,7.2
2018-04-17T01:14:33.739Z,7.26
2018-04-17T01:15:33.740Z,7.3
2018-04-17T01:16:33.788Z,7.26
2018-04-17T01:17:33.744Z,7.24
2018-04-17T01:18:33.738Z,7.13
2018-04-17T01:19:33.731Z,7.13
2018-04-17T01:20:33.719Z,7.18
2018-04-17T01:21:33.851Z,7.22
2018-04-17T01:22:33.792Z,7.21
2018-04-17T01:23:33.737Z,7.07
2018-04-17T01:24:33.722Z,7.14
2018-04-17T01:25:33.716Z,7.29
2018-04-17T01:26:33.741Z,7.23
2018-04-17T01:27:33.698Z,7.27
2018-04-17T01:28:33.707Z,7.3
2018-04-17T01:29:33.732Z,7.29
2018-04-17T01:30:33.697Z,7.21
2018-04-17T01:31:33.790Z,7.3
2018-04-17T01:32:33.705Z,7.29
2018-04-17T01:33:33.729Z,7.16
2018-04-17T01:34:33.694Z,7.09
2018-04-17T01:35:33.719Z,7.15
2018-04-17T01:36:33.773Z,7.23
2018-04-17T01:37:33.703Z,7.07
2018-04-17T01:38:33.702Z,7.17
2018-04-17T01:39:33.684Z,7.09
2018-04-17T01:40:33.697Z,7.15
2018-04-17T01:41:33.721Z,7.09
2018-04-17T01:42:33.920Z,7.14
2018-04-17T01:43:33.690Z,7.13
2018-04-17T01:44:33.693Z,7.09
2018-04-17T01:45:33.686Z,7.25
2018-04-17T01:46:33.675Z,7.32
2018-04-17T01:47:33.690Z,7.34
2018-04-17T01:48:33.673Z,7.34
2018-04-17T01:49:33.702Z,7.31
2018-04-17T01:50:33.686Z,7.28
2018-04-17T01:51:33.666Z,7.22
2018-04-17T01:52:33.678Z,7.21
2018-04-17T01:53:33.704Z,7.14
2018-04-17T01:54:33.689Z,7.23
2018-04-17T01:55:33.799Z,7.24
2018-04-17T01:56:33.652Z,7.18
2018-04-17T01:57:33.683Z,7.14
2018-04-17T01:58:33.665Z,7.21
2018-04-17T01:59:33.664Z,7.18
2018-04-17T02:00:33.717Z,7.15
2018-04-17T02:01:33.647Z,7.18
2018-04-17T02:02:33.673Z,7.16
2018-04-17T02:03:33.644Z,7.16
2018-04-17T02:04:33.650Z,7.15
2018-04-17T02:05:33.715Z,7.12
2018-04-17T02:06:33.811Z,7.1
2018-04-17T02:07:33.715Z,7.03
2018-04-17T02:08:33.661Z,6.98
2018-04-17T02:09:33.657Z,6.97
2018-04-17T02:10:33.709Z,7.07
2018-04-17T02:11:33.642Z,7.05
2018-04-17T02:12:33.753Z,7.07
2018-04-17T02:13:33.697Z,7.02
2018-04-17T02:14:33.640Z,6.98
2018-04-17T02:15:33.788Z,7.03
2018-04-17T02:16:33.648Z,7.01
2018-04-17T02:17:33.629Z,6.98
2018-04-17T02:18:33.670Z,6.98
2018-04-17T02:19:33.694Z,6.97
2018-04-17T02:20:33.798Z,6.96
2018-04-17T02:21:33.737Z,6.97
2018-04-17T02:22:33.624Z,6.85
2018-04-17T02:23:33.667Z,6.81
2018-04-17T02:24:33.654Z,6.95
2018-04-17T02:25:33.663Z,6.81
2018-04-17T02:26:33.608Z,6.81
2018-04-17T02:27:33.695Z,6.74
2018-04-17T02:28:33.626Z,6.84
2018-04-17T02:29:33.611Z,6.73
2018-04-17T02:30:33.661Z,6.77
2018-04-17T02:31:33.653Z,6.9
2018-04-17T02:32:33.632Z,6.76
2018-04-17T02:33:33.628Z,6.66
2018-04-17T02:34:33.621Z,6.74
2018-04-17T02:35:33.640Z,6.68
2018-04-17T02:36:33.605Z,6.66
2018-04-17T02:37:33.598Z,6.68
2018-04-17T02:38:33.635Z,6.8
2018-04-17T02:39:33.637Z,6.85
2018-04-17T02:40:33.649Z,6.74
2018-04-17T02:41:33.600Z,6.82
2018-04-17T02:42:33.586Z,7.02
2018-04-17T02:43:33.611Z,7.12
2018-04-17T02:44:33.615Z,7.11
2018-04-17T02:45:33.633Z,7.05
2018-04-17T02:46:33.600Z,6.95
2018-04-17T02:47:33.922Z,6.95
2018-04-17T02:48:33.608Z,7.03
2018-04-17T02:49:33.592Z,7.07
2018-04-17T02:50:33.578Z,6.91
2018-04-17T02:51:33.598Z,6.94
2018-04-17T02:52:33.591Z,6.98
2018-04-17T02:53:33.655Z,7.01
2018-04-17T02:54:33.597Z,7.06
2018-04-17T02:55:33.592Z,7.06
2018-04-17T02:56:33.605Z,6.97
2018-04-17T02:57:33.571Z,6.89
2018-04-17T02:58:33.579Z,6.95
2018-04-17T02:59:33.676Z,7
2018-04-17T03:00:33.609Z,7
2018-04-17T03:01:33.577Z,6.88
2018-04-17T03:02:33.590Z,6.95
2018-04-17T03:03:33.583Z,6.94
2018-04-17T03:04:33.556Z,6.88
2018-04-17T03:05:33.630Z,6.85
2018-04-17T03:06:33.572Z,6.84
2018-04-17T03:07:33.692Z,6.95
2018-04-17T03:08:33.563Z,6.88
2018-04-17T03:09:33.726Z,6.78
2018-04-17T03:10:33.563Z,6.69
2018-04-17T03:11:33.545Z,6.9
2018-04-17T03:12:33.553Z,6.83
2018-04-17T03:13:33.602Z,6.91
2018-04-17T03:14:33.554Z,6.82
2018-04-17T03:15:33.550Z,6.8
2018-04-17T03:16:33.540Z,6.87
2018-04-17T03:17:33.547Z,6.72
2018-04-17T03:18:33.546Z,6.73
2018-04-17T03:19:33.590Z,6.94
2018-04-17T03:20:33.561Z,6.9
2018-04-17T03:21:33.707Z,6.89
2018-04-17T03:22:33.547Z,6.9
2018-04-17T03:23:33.553Z,6.69
2018-04-17T03:24:33.574Z,6.87
2018-04-17T03:25:33.570Z,6.88
2018-04-17T03:26:33.536Z,6.82
2018-04-17T03:27:33.553Z,6.84
2018-04-17T03:28:33.543Z,6.85
2018-04-17T03:29:33.530Z,6.75
2018-04-17T03:30:33.595Z,6.89
2018-04-17T03:31:33.541Z,6.86
2018-04-17T03:32:33.568Z,6.84
2018-04-17T03:33:33.556Z,6.84
2018-04-17T03:34:33.529Z,6.79
2018-04-17T03:35:33.539Z,6.72
2018-04-17T03:36:33.542Z,6.66
2018-04-17T03:37:33.536Z,6.62
2018-04-17T03:38:33.525Z,6.52
2018-04-17T03:39:33.764Z,6.54
2018-04-17T03:40:33.539Z,6.61
2018-04-17T03:41:33.590Z,6.72
2018-04-17T03:42:33.529Z,6.66
2018-04-17T03:43:33.532Z,6.58
2018-04-17T03:44:33.523Z,6.58
2018-04-17T03:45:33.757Z,6.84
2018-04-17T03:46:33.549Z,6.79
2018-04-17T03:47:33.516Z,6.66
2018-04-17T03:48:33.508Z,6.61
2018-04-17T03:49:33.530Z,6.7
2018-04-17T03:50:33.545Z,6.67
2018-04-17T03:51:33.518Z,6.53
2018-04-17T03:52:33.504Z,6.73
2018-04-17T03:53:33.525Z,6.66
2018-04-17T03:54:33.489Z,6.57
2018-04-17T03:55:33.761Z,6.67
2018-04-17T03:56:33.533Z,6.56
2018-04-17T03:57:33.492Z,6.75
2018-04-17T03:58:33.506Z,6.79
2018-04-17T03:59:33.495Z,6.66
2018-04-17T04:00:33.524Z,6.69
2018-04-17T04:01:33.511Z,6.56
2018-04-17T04:02:33.530Z,6.68
2018-04-17T04:03:33.495Z,6.64
2018-04-17T04:04:33.482Z,6.53
2018-04-17T04:05:33.774Z,6.58
2018-04-17T04:06:33.514Z,6.56
2018-04-17T04:07:33.469Z,6.69
2018-04-17T04:08:33.453Z,6.74
2018-04-17T04:09:33.487Z,6.74
2018-04-17T04:10:33.748Z,6.74
2018-04-17T04:11:33.478Z,6.59
2018-04-17T04:12:33.477Z,6.74
2018-04-17T04:13:33.483Z,6.64
2018-04-17T04:14:33.565Z,6.68
2018-04-17T04:15:33.776Z,6.72
2018-04-17T04:16:33.510Z,6.8
2018-04-17T04:17:33.489Z,6.79
2018-04-17T04:18:33.474Z,6.61
2018-04-17T04:19:33.461Z,6.63
2018-04-17T04:20:33.483Z,6.68
2018-04-17T04:21:33.507Z,6.73
2018-04-17T04:22:33.468Z,6.59
2018-04-17T04:23:33.478Z,6.71
2018-04-17T04:24:33.470Z,6.79
2018-04-17T04:25:33.468Z,6.59
2018-04-17T04:26:33.483Z,6.66
2018-04-17T04:27:33.762Z,6.63
2018-04-17T04:28:33.484Z,6.66
2018-04-17T04:29:33.476Z,6.69
2018-04-17T04:30:33.508Z,6.66
2018-04-17T04:31:33.449Z,6.66
2018-04-17T04:32:33.500Z,6.68
2018-04-17T04:33:33.453Z,6.67
2018-04-17T04:34:33.502Z,6.66
2018-04-17T04:35:33.538Z,6.68
2018-04-17T04:36:33.472Z,6.68
2018-04-17T04:37:33.440Z,6.47
2018-04-17T04:38:33.440Z,6.64
2018-04-17T04:39:33.577Z,6.51
2018-04-17T04:40:33.467Z,6.49
2018-04-17T04:41:33.420Z,6.6
2018-04-17T04:42:33.485Z,6.69
2018-04-17T04:43:33.436Z,6.72
2018-04-17T04:44:33.433Z,6.7
2018-04-17T04:45:33.484Z,6.88
2018-04-17T04:46:33.433Z,6.74
2018-04-17T04:47:33.439Z,6.66
2018-04-17T04:48:33.410Z,6.69
2018-04-17T04:49:33.417Z,6.97
2018-04-17T04:50:33.418Z,6.86
2018-04-17T04:51:33.422Z,6.8
2018-04-17T04:52:33.415Z,6.68
2018-04-17T04:53:33.451Z,6.79
2018-04-17T04:54:33.401Z,6.72
2018-04-17T04:55:33.432Z,6.69
2018-04-17T04:56:33.412Z,6.6
2018-04-17T04:57:33.419Z,6.68
2018-04-17T04:58:33.407Z,6.73
2018-04-17T04:59:33.401Z,6.76
2018-04-17T05:00:33.469Z,6.7
2018-04-17T05:01:33.404Z,6.95
2018-04-17T05:02:33.403Z,6.95
2018-04-17T05:03:33.414Z,6.91
2018-04-17T05:04:33.407Z,7.02
2018-04-17T05:05:33.399Z,6.81
2018-04-17T05:06:33.509Z,6.75
2018-04-17T05:07:33.422Z,6.69
2018-04-17T05:08:33.397Z,6.73
2018-04-17T05:09:33.397Z,6.68
2018-04-17T05:10:33.374Z,6.99
2018-04-17T05:11:33.370Z,6.97
2018-04-17T05:12:33.452Z,7.02
2018-04-17T05:13:33.417Z,7.03
2018-04-17T05:14:33.406Z,7.08
2018-04-17T05:15:33.382Z,6.9
2018-04-17T05:16:33.417Z,6.91
2018-04-17T05:17:33.406Z,7.02
2018-04-17T05:18:33.750Z,6.95
2018-04-17T05:19:33.397Z,6.95
2018-04-17T05:20:33.446Z,6.9
2018-04-17T05:21:33.508Z,6.95
2018-04-17T05:22:33.402Z,7.02
2018-04-17T05:23:33.405Z,7.18
2018-04-17T05:24:33.476Z,7.2
2018-04-17T05:25:33.363Z,7.21
2018-04-17T05:26:33.426Z,7.23
2018-04-17T05:27:33.377Z,7.2
2018-04-17T05:28:33.368Z,7.16
2018-04-17T05:29:33.400Z,7.11
2018-04-17T05:30:33.356Z,7.11
2018-04-17T05:31:33.372Z,7.16
2018-04-17T05:32:33.357Z,7.25
2018-04-17T05:33:33.520Z,7.07
2018-04-17T05:34:33.346Z,7.29
2018-04-17T05:35:33.376Z,7.15
2018-04-17T05:36:33.525Z,7.19
2018-04-17T05:37:33.381Z,7.14
2018-04-17T05:38:33.339Z,7.17
2018-04-17T05:39:33.353Z,7.39
2018-04-17T05:40:33.357Z,7.39
2018-04-17T05:41:33.347Z,7.22
2018-04-17T05:42:33.363Z,7.36
2018-04-17T05:43:33.339Z,7.39
2018-04-17T05:44:33.384Z,7.35
2018-04-17T05:45:33.387Z,7.34
2018-04-17T05:46:33.362Z,7.36
2018-04-17T05:47:33.363Z,7.37
2018-04-17T05:48:33.365Z,7.24
2018-04-17T05:49:33.321Z,7.37
2018-04-17T05:50:33.334Z,7.31
2018-04-17T05:51:33.366Z,7.26
2018-04-17T05:52:33.384Z,7.17
2018-04-17T05:53:33.336Z,7.25
2018-04-17T05:54:33.443Z,7.27
2018-04-17T05:55:33.323Z,7.31
2018-04-17T05:56:33.354Z,7.18
2018-04-17T05:57:33.349Z,7.39
2018-04-17T05:58:33.442Z,7.35
2018-04-17T05:59:33.345Z,7.39
2018-04-17T06:00:33.325Z,7.38
2018-04-17T06:01:33.308Z,7.51
2018-04-17T06:02:33.350Z,7.36
2018-04-17T06:03:33.345Z,7.46
2018-04-17T06:04:33.431Z,7.39
2018-04-17T06:05:33.317Z,7.54
2018-04-17T06:06:33.444Z,7.55
2018-04-17T06:07:33.340Z,7.57
2018-04-17T06:08:33.294Z,7.56
2018-04-17T06:09:33.285Z,7.56
2018-04-17T06:10:33.315Z,7.51
2018-04-17T06:11:33.324Z,7.55
2018-04-17T06:12:33.320Z,7.51
2018-04-17T06:13:33.295Z,7.51
2018-04-17T06:14:33.290Z,7.72
2018-04-17T06:15:33.266Z,7.62
2018-04-17T06:16:33.314Z,7.78
2018-04-17T06:17:33.304Z,7.67
2018-04-17T06:18:33.311Z,7.72
2018-04-17T06:19:33.314Z,7.67
2018-04-17T06:20:33.423Z,7.81
2018-04-17T06:21:33.291Z,7.69
2018-04-17T06:22:33.389Z,7.62
2018-04-17T06:23:33.382Z,7.78
2018-04-17T06:24:33.290Z,7.66
2018-04-17T06:25:33.319Z,7.71
2018-04-17T06:26:33.339Z,7.62
2018-04-17T06:27:33.276Z,7.59
2018-04-17T06:28:33.337Z,7.49
2018-04-17T06:29:33.307Z,7.56
2018-04-17T06:30:33.282Z,7.6
2018-04-17T06:31:33.314Z,7.77
2018-04-17T06:32:33.282Z,7.76
2018-04-17T06:33:33.299Z,7.71
2018-04-17T06:34:33.367Z,7.77
2018-04-17T06:35:33.283Z,7.82
2018-04-17T06:36:33.266Z,7.77
2018-04-17T06:37:33.288Z,7.75
2018-04-17T06:38:33.293Z,7.64
2018-04-17T06:39:33.247Z,7.8
2018-04-17T06:40:33.278Z,7.76
2018-04-17T06:41:33.267Z,7.68
2018-04-17T06:42:33.307Z,7.6
2018-04-17T06:43:33.261Z,7.73
2018-04-17T06:44:33.356Z,7.87
2018-04-17T06:45:33.256Z,7.86
2018-04-17T06:46:33.245Z,7.77
2018-04-17T06:47:33.849Z,7.76
2018-04-17T06:48:33.261Z,7.87
2018-04-17T06:49:33.276Z,7.97
2018-04-17T06:50:33.264Z,7.87
2018-04-17T06:51:33.233Z,7.98
2018-04-17T06:52:33.408Z,7.98
2018-04-17T06:53:33.304Z,7.88
2018-04-17T06:54:34.157Z,7.99
2018-04-17T06:55:33.259Z,8.01
2018-04-17T06:56:33.267Z,7.99
2018-04-17T06:57:33.272Z,8
2018-04-17T06:58:33.271Z,7.99
2018-04-17T06:59:33.238Z,8.13
2018-04-17T07:00:33.205Z,8.19
2018-04-17T07:01:33.210Z,8.15
2018-04-17T07:02:33.196Z,8.3
2018-04-17T07:03:33.362Z,8.26
2018-04-17T07:04:33.212Z,8.4
2018-04-17T07:05:33.279Z,8.29
2018-04-17T07:06:33.218Z,8.19
2018-04-17T07:07:33.192Z,8.05
2018-04-17T07:08:33.218Z,8.17
2018-04-17T07:09:33.222Z,8.21
2018-04-17T07:10:33.189Z,8.1
2018-04-17T07:11:33.229Z,8.15
2018-04-17T07:12:33.214Z,8.2
2018-04-17T07:13:33.221Z,8.16
2018-04-17T07:14:33.292Z,8.28
2018-04-17T07:15:33.201Z,8.18
2018-04-17T07:16:33.213Z,8.35
2018-04-17T07:17:33.248Z,8.37
2018-04-17T07:18:33.255Z,8.32
2018-04-17T07:19:33.234Z,8.33
2018-04-17T07:20:33.197Z,8.32
2018-04-17T07:21:33.193Z,8.39
2018-04-17T07:22:33.212Z,8.46
2018-04-17T07:23:33.227Z,8.49
2018-04-17T07:24:33.182Z,8.29
2018-04-17T07:25:33.199Z,8.27
2018-04-17T07:26:33.185Z,8.21
2018-04-17T07:27:33.179Z,8.32
2018-04-17T07:28:33.207Z,8.46
2018-04-17T07:29:33.177Z,8.41
2018-04-17T07:30:33.196Z,8.32
2018-04-17T07:31:33.147Z,8.29
2018-04-17T07:32:33.200Z,8.33
2018-04-17T07:33:33.190Z,8.33
2018-04-17T07:34:33.180Z,8.34
2018-04-17T07:35:33.198Z,8.56
2018-04-17T07:36:33.147Z,8.45
2018-04-17T07:37:33.167Z,8.57
2018-04-17T07:38:33.207Z,8.67
2018-04-17T07:39:33.148Z,8.6
2018-04-17T07:40:33.747Z,8.49
2018-04-17T07:41:33.173Z,8.5
2018-04-17T07:42:33.152Z,8.57
2018-04-17T07:43:33.217Z,8.58
2018-04-17T07:44:33.151Z,8.41
2018-04-17T07:45:33.136Z,8.49
2018-04-17T07:46:33.157Z,8.56
2018-04-17T07:47:33.179Z,8.6
2018-04-17T07:48:33.145Z,8.64
2018-04-17T07:49:33.117Z,8.54
2018-04-17T07:50:33.119Z,8.58
2018-04-17T07:51:33.127Z,8.55
2018-04-17T07:52:33.164Z,8.65
2018-04-17T07:53:33.183Z,8.65
2018-04-17T07:54:33.306Z,8.68
2018-04-17T07:55:33.199Z,8.71
2018-04-17T07:56:33.148Z,8.7
2018-04-17T07:57:33.155Z,8.73
2018-04-17T07:58:33.139Z,8.75
2018-04-17T07:59:33.167Z,8.98
2018-04-17T08:00:33.133Z,8.71
2018-04-17T08:01:33.166Z,8.76
2018-04-17T08:02:33.145Z,8.59
2018-04-17T08:03:33.098Z,8.65
2018-04-17T08:04:33.159Z,8.75
2018-04-17T08:05:33.104Z,8.93
2018-04-17T08:06:33.141Z,9.02
2018-04-17T08:07:33.124Z,9
2018-04-17T08:08:33.123Z,9.05
2018-04-17T08:09:33.270Z,9.07
2018-04-17T08:10:33.124Z,8.98
2018-04-17T08:11:33.114Z,9.02
2018-04-17T08:12:33.110Z,8.9
2018-04-17T08:13:33.145Z,9.18
2018-04-17T08:14:33.120Z,9.04
2018-04-17T08:15:33.176Z,9.04
2018-04-17T08:16:33.168Z,9.05
2018-04-17T08:17:33.296Z,9.02
2018-04-17T08:18:33.137Z,9.04
2018-04-17T08:19:33.200Z,9.16
2018-04-17T08:20:33.147Z,9.16
2018-04-17T08:21:33.114Z,8.98
2018-04-17T08:22:33.080Z,8.91
2018-04-17T08:23:33.540Z,8.84
2018-04-17T08:24:33.147Z,9.11
2018-04-17T08:25:33.082Z,9.19
2018-04-17T08:26:33.114Z,8.85
2018-04-17T08:27:33.087Z,8.71
2018-04-17T08:28:33.485Z,8.81
2018-04-17T08:29:33.099Z,8.93
2018-04-17T08:30:33.075Z,8.91
2018-04-17T08:31:33.088Z,8.82
2018-04-17T08:32:33.083Z,8.71
2018-04-17T08:33:33.120Z,8.81
2018-04-17T08:34:34.351Z,9.12
2018-04-17T08:35:33.073Z,8.95
2018-04-17T08:36:33.064Z,8.89
2018-04-17T08:37:33.207Z,8.85
2018-04-17T08:38:33.134Z,8.96
2018-04-17T08:39:33.070Z,8.98
2018-04-17T08:40:33.084Z,8.9
2018-04-17T08:41:33.080Z,8.96
2018-04-17T08:42:33.079Z,8.94
2018-04-17T08:43:33.090Z,8.91
2018-04-17T08:44:33.080Z,8.92
2018-04-17T08:45:33.069Z,8.96
2018-04-17T08:46:33.107Z,9.34
2018-04-17T08:47:33.052Z,8.85
2018-04-17T08:48:33.046Z,8.66
2018-04-17T08:49:33.057Z,8.87
2018-04-17T08:50:33.028Z,9.12
2018-04-17T08:51:33.061Z,9.05
2018-04-17T08:52:33.275Z,8.55
2018-04-17T08:53:33.036Z,8.89
2018-04-17T08:54:33.293Z,8.87
2018-04-17T08:55:33.045Z,9.01
2018-04-17T08:56:33.074Z,9.19
2018-04-17T08:57:33.047Z,9.07
2018-04-17T08:58:33.057Z,8.86
2018-04-17T08:59:33.302Z,9.17
2018-04-17T09:00:33.067Z,9.04
2018-04-17T09:01:33.038Z,8.8
2018-04-17T09:02:33.154Z,9.04
2018-04-17T09:03:33.108Z,8.89
2018-04-17T09:04:33.308Z,8.86
2018-04-17T09:05:33.015Z,9.15
2018-04-17T09:06:33.050Z,9.09
2018-04-17T09:07:33.008Z,9.11
2018-04-17T09:08:33.036Z,9.03
2018-04-17T09:09:33.035Z,9.06
2018-04-17T09:10:33.116Z,9.16
2018-04-17T09:11:33.011Z,9.14
2018-04-17T09:12:33.052Z,9.44
2018-04-17T09:13:33.058Z,8.97
2018-04-17T09:14:33.035Z,9
2018-04-17T09:15:33.006Z,9.3
2018-04-17T09:16:33.009Z,9.62
2018-04-17T09:17:33.005Z,9.34
2018-04-17T09:18:33.050Z,9.31
2018-04-17T09:19:33.027Z,9.17
2018-04-17T09:20:33.024Z,9.19
2018-04-17T09:21:32.985Z,9.26
2018-04-17T09:22:33.054Z,9.42
2018-04-17T09:23:33.165Z,9.31
2018-04-17T09:24:33.012Z,9.09
2018-04-17T09:25:33.008Z,9.1
2018-04-17T09:26:33.013Z,9.06
2018-04-17T09:27:33.302Z,9.22
2018-04-17T09:28:33.030Z,9.24
2018-04-17T09:29:32.993Z,9.42
2018-04-17T09:30:32.998Z,9.55
2018-04-17T09:31:33.115Z,9.61
2018-04-17T09:32:32.994Z,9.58
2018-04-17T09:33:33.047Z,9.7
2018-04-17T09:34:33.405Z,9.33
2018-04-17T09:35:33.003Z,9.52
2018-04-17T09:36:32.980Z,9.61
2018-04-17T09:37:33.050Z,9.27
2018-04-17T09:38:33.019Z,9.46
2018-04-17T09:39:33.007Z,9.45
2018-04-17T09:40:33.003Z,9.54
2018-04-17T09:41:33.026Z,9.22
2018-04-17T09:42:33.172Z,9.33
2018-04-17T09:43:33.072Z,9.6
2018-04-17T09:44:33.050Z,9.55
2018-04-17T09:45:32.998Z,9.12
2018-04-17T09:46:33.062Z,9.15
2018-04-17T09:47:32.957Z,9.02
2018-04-17T09:48:32.972Z,9.06
2018-04-17T09:49:32.972Z,9.07
2018-04-17T09:50:33.128Z,9.08
2018-04-17T09:51:32.957Z,9.03
2018-04-17T09:52:32.947Z,9.16
2018-04-17T09:53:32.993Z,9.12
2018-04-17T09:54:33.081Z,9.07
2018-04-17T09:55:32.973Z,9.1
2018-04-17T09:56:33.015Z,8.91
2018-04-17T09:57:33.278Z,9.14
2018-04-17T09:58:33.010Z,9.22
2018-04-17T09:59:32.943Z,9.22
2018-04-17T10:00:32.969Z,9.08
2018-04-17T10:01:32.961Z,9.08
2018-04-17T10:02:32.940Z,9.35
2018-04-17T10:03:33.094Z,9.12
2018-04-17T10:04:32.950Z,9.15
2018-04-17T10:05:32.953Z,8.94
2018-04-17T10:06:32.960Z,8.87
2018-04-17T10:07:33.018Z,9.09
2018-04-17T10:08:32.996Z,9.18
2018-04-17T10:09:32.935Z,9.61
2018-04-17T10:10:32.957Z,9.38
2018-04-17T10:11:32.926Z,9.13
2018-04-17T10:12:32.927Z,9.37
2018-04-17T10:13:32.930Z,9.43
2018-04-17T10:14:32.965Z,9.48
2018-04-17T10:15:33.025Z,9.52
2018-04-17T10:16:33.083Z,9.73
2018-04-17T10:17:32.941Z,9.79
2018-04-17T10:18:32.924Z,10.1
2018-04-17T10:19:32.982Z,9.72
2018-04-17T10:20:32.973Z,9.83
2018-04-17T10:21:33.063Z,10.01
2018-04-17T10:22:33.265Z,10.15
2018-04-17T10:23:32.904Z,10.16
2018-04-17T10:24:32.947Z,10.14
2018-04-17T10:25:32.921Z,10.34
2018-04-17T10:26:32.928Z,10.22
2018-04-17T10:27:32.953Z,10.4
2018-04-17T10:28:32.899Z,10.39
2018-04-17T10:29:32.891Z,10.3
2018-04-17T10:30:32.915Z,10.35
2018-04-17T10:31:32.945Z,10.34
2018-04-17T10:32:32.923Z,10.32
2018-04-17T10:33:32.933Z,10.42
2018-04-17T10:34:32.970Z,10.27
2018-04-17T10:35:32.908Z,10.04
2018-04-17T10:36:32.929Z,10.11
2018-04-17T10:37:32.904Z,9.93
2018-04-17T10:38:32.928Z,9.97
2018-04-17T10:39:32.957Z,10.11
2018-04-17T10:40:32.906Z,10.2
2018-04-17T10:41:32.919Z,10.24
2018-04-17T10:42:32.882Z,10.32
2018-04-17T10:43:32.961Z,10.35
2018-04-17T10:44:32.903Z,10.29
2018-04-17T10:45:32.923Z,10.32
2018-04-17T10:46:33.225Z,10.4
2018-04-17T10:47:32.971Z,10.32
2018-04-17T10:48:32.916Z,10.45
2018-04-17T10:49:32.950Z,10.47
2018-04-17T10:50:32.909Z,10.5
2018-04-17T10:51:32.920Z,10.44
2018-04-17T10:52:32.896Z,10.21
2018-04-17T10:53:32.920Z,10.32
2018-04-17T10:54:32.885Z,10.3
2018-04-17T10:55:32.918Z,10.41
2018-04-17T10:56:32.956Z,10.33
2018-04-17T10:57:32.895Z,10.58
2018-04-17T10:58:32.850Z,10.15
2018-04-17T10:59:32.891Z,10.1
2018-04-17T11:00:32.915Z,9.98
2018-04-17T11:01:32.929Z,9.61
2018-04-17T11:02:32.875Z,9.94
2018-04-17T11:03:32.902Z,9.07
2018-04-17T11:04:32.842Z,8.85
2018-04-17T11:05:32.877Z,9.2
2018-04-17T11:06:33.113Z,8.85
2018-04-17T11:07:32.923Z,8.64
2018-04-17T11:08:32.869Z,8.82
2018-04-17T11:09:32.848Z,8.64
2018-04-17T11:10:32.864Z,8.57
2018-04-17T11:11:32.907Z,8.47
2018-04-17T11:12:33.004Z,8.67
2018-04-17T11:13:32.866Z,9.18
2018-04-17T11:14:32.878Z,9.24
2018-04-17T11:15:32.838Z,9.2
2018-04-17T11:16:32.917Z,8.82
2018-04-17T11:17:32.851Z,8.56
2018-04-17T11:18:32.982Z,8.85
2018-04-17T11:19:32.851Z,8.92
2018-04-17T11:20:32.882Z,9.17
2018-04-17T11:21:33.152Z,9.05
2018-04-17T11:22:32.817Z,9.14
2018-04-17T11:23:32.824Z,9.12
2018-04-17T11:24:32.849Z,9.73
2018-04-17T11:25:32.878Z,9.72
2018-04-17T11:26:32.845Z,9.02
2018-04-17T11:27:32.821Z,8.05
2018-04-17T11:28:32.902Z,8.3
2018-04-17T11:29:32.827Z,9.08
2018-04-17T11:30:32.863Z,8.87
2018-04-17T11:31:32.880Z,8.13
2018-04-17T11:32:32.857Z,8.1
2018-04-17T11:33:32.849Z,8.31
2018-04-17T11:34:33.079Z,8.36
2018-04-17T11:35:32.911Z,8.38
2018-04-17T11:36:32.833Z,8.6
2018-04-17T11:37:32.825Z,8.39
2018-04-17T11:38:32.870Z,8.01
2018-04-17T11:39:32.895Z,7.71
2018-04-17T11:40:32.810Z,8.3
2018-04-17T11:41:32.846Z,8.79
2018-04-17T11:42:32.855Z,8.17
2018-04-17T11:43:32.863Z,8.75
2018-04-17T11:44:32.832Z,8.88
2018-04-17T11:45:32.802Z,8.61
2018-04-17T11:46:32.859Z,8.97
2018-04-17T11:47:32.824Z,8.76
2018-04-17T11:48:32.956Z,8.5
2018-04-17T11:49:32.854Z,8.57
2018-04-17T11:50:32.877Z,8.58
2018-04-17T11:51:32.812Z,8.28
2018-04-17T11:52:32.809Z,8.31
2018-04-17T11:53:32.885Z,8.36
2018-04-17T11:54:32.820Z,8.42
2018-04-17T11:55:32.795Z,8
2018-04-17T11:56:32.981Z,8.09
2018-04-17T11:57:33.007Z,8.37
2018-04-17T11:58:32.828Z,8.44
2018-04-17T11:59:32.795Z,8.31
2018-04-17T12:00:32.807Z,8.7
2018-04-17T12:01:32.840Z,8.6
2018-04-17T12:02:32.777Z,8.76
2018-04-17T12:03:32.794Z,7.77
2018-04-17T12:04:32.835Z,8.49
2018-04-17T12:05:32.853Z,8.52
2018-04-17T12:06:32.782Z,8.64
2018-04-17T12:07:32.786Z,8.08
2018-04-17T12:08:32.783Z,7.44
2018-04-17T12:09:32.787Z,7.85
2018-04-17T12:10:32.776Z,8.33
2018-04-17T12:11:32.812Z,8.42
2018-04-17T12:12:32.822Z,8.09
2018-04-17T12:13:32.767Z,7.77
2018-04-17T12:14:32.767Z,7.66
2018-04-17T12:15:32.791Z,7.74
2018-04-17T12:16:32.793Z,7.6
2018-04-17T12:17:32.824Z,7.95
2018-04-17T12:18:32.787Z,8.2
2018-04-17T12:19:32.789Z,7.72
2018-04-17T12:20:32.772Z,8.55
2018-04-17T12:21:32.769Z,8.49
2018-04-17T12:22:32.764Z,7.75
2018-04-17T12:23:32.829Z,7.94
2018-04-17T12:24:32.759Z,7.91
2018-04-17T12:25:32.750Z,7.38
2018-04-17T12:26:32.788Z,7.78
2018-04-17T12:27:32.887Z,7.82
2018-04-17T12:28:32.770Z,7.06
2018-04-17T12:29:32.734Z,6.96
2018-04-17T12:30:32.769Z,7.74
2018-04-17T12:31:32.770Z,7.98
2018-04-17T12:32:32.916Z,7.31
2018-04-17T12:33:32.732Z,7.65
2018-04-17T12:34:33.044Z,7.95
2018-04-17T12:35:32.747Z,7.56
2018-04-17T12:36:32.727Z,7.59
2018-04-17T12:37:32.746Z,7.67
2018-04-17T12:38:32.751Z,7
2018-04-17T12:39:32.718Z,7.52
2018-04-17T12:40:32.798Z,7.32
2018-04-17T12:41:32.749Z,7.72
2018-04-17T12:42:32.756Z,6.71
2018-04-17T12:43:32.746Z,6.7
2018-04-17T12:44:32.864Z,7.95
2018-04-17T12:45:32.720Z,7.87
2018-04-17T12:46:32.719Z,8.2
2018-04-17T12:47:32.819Z,7.96
2018-04-17T12:48:32.737Z,7.99
2018-04-17T12:49:32.714Z,7.16
2018-04-17T12:50:32.706Z,7.92
2018-04-17T12:51:32.775Z,6.63
2018-04-17T12:52:32.747Z,7.08
2018-04-17T12:53:32.700Z,7.43
2018-04-17T12:54:32.714Z,7.69
2018-04-17T12:55:32.722Z,8.1
2018-04-17T12:56:32.699Z,7.95
2018-04-17T12:57:32.759Z,7.51
2018-04-17T12:58:32.789Z,6.79
2018-04-17T12:59:32.726Z,7.15
2018-04-17T13:00:32.711Z,6.49
2018-04-17T13:01:32.796Z,7.27
2018-04-17T13:02:32.695Z,7.58
2018-04-17T13:03:32.686Z,7.79
2018-04-17T13:04:32.725Z,7.64
2018-04-17T13:05:32.702Z,7.21
2018-04-17T13:06:32.708Z,7.66
2018-04-17T13:07:32.680Z,6.91
2018-04-17T13:08:32.680Z,6.33
2018-04-17T13:09:32.727Z,6.63
2018-04-17T13:10:32.698Z,6.75
2018-04-17T13:11:32.710Z,7.42
2018-04-17T13:12:32.682Z,7.4
2018-04-17T13:13:32.685Z,7.64
2018-04-17T13:14:32.685Z,8
2018-04-17T13:15:32.686Z,8.1
2018-04-17T13:16:32.703Z,6.35
2018-04-17T13:17:32.725Z,7.51
2018-04-17T13:18:32.693Z,7.33
2018-04-17T13:19:32.697Z,6.74
2018-04-17T13:20:32.917Z,6.47